createdAt,value
2022-09-15T00:01:09.532Z,4.50
2022-09-15T00:03:36.975Z,6.03
2022-09-15T00:06:04.231Z,4.50
2022-09-15T00:08:31.228Z,4.23
2022-09-15T00:11:10.374Z,2.53
2022-09-15T00:13:39.440Z,4.87
2022-09-15T00:16:08.026Z,3.33
2022-09-15T00:18:36.882Z,5.30
2022-09-15T00:21:09.815Z,4.90
2022-09-15T00:23:37.233Z,4.40
2022-09-15T00:26:08.681Z,2.83
2022-09-15T00:28:35.876Z,3.93
2022-09-15T00:31:11.410Z,2.67
2022-09-15T00:33:38.513Z,4.60
2022-09-15T00:36:10.844Z,4.67
2022-09-15T00:38:38.667Z,2.97
2022-09-15T00:41:07.313Z,3.93
2022-09-15T00:43:54.804Z,3.63
2022-09-15T00:46:39.207Z,3.00
2022-09-15T00:49:14.804Z,5.13
2022-09-15T00:52:05.582Z,4.63
2022-09-15T00:54:41.368Z,3.97
2022-09-15T00:57:34.841Z,6.57
2022-09-15T01:00:07.296Z,3.70
2022-09-15T01:02:36.151Z,9.60
2022-09-15T01:05:07.677Z,3.10
2022-09-15T01:08:08.144Z,2.53
2022-09-15T01:10:39.811Z,3.90
2022-09-15T01:13:10.906Z,3.57
2022-09-15T01:15:56.015Z,2.80
2022-09-15T01:18:53.991Z,2.60
2022-09-15T01:21:31.661Z,3.63
2022-09-15T01:24:41.000Z,3.13
2022-09-15T01:27:57.898Z,6.33
2022-09-15T01:30:25.743Z,2.37
2022-09-15T01:33:06.491Z,5.27
2022-09-15T01:35:51.584Z,3.17
2022-09-15T01:38:36.056Z,2.87
2022-09-15T01:41:16.874Z,2.23
2022-09-15T01:44:02.682Z,2.67
2022-09-15T01:46:34.682Z,3.73
2022-09-15T01:49:05.374Z,2.23
2022-09-15T01:51:33.735Z,5.07
2022-09-15T01:54:04.421Z,3.53
2022-09-15T01:56:31.518Z,3.70
2022-09-15T01:58:58.471Z,2.83
2022-09-15T02:01:47.224Z,3.20
2022-09-15T02:04:53.124Z,3.13
2022-09-15T02:07:40.081Z,2.07
2022-09-15T02:10:36.650Z,2.70
2022-09-15T02:13:31.279Z,4.57
2022-09-15T02:16:00.242Z,2.07
2022-09-15T02:18:39.577Z,3.43
2022-09-15T02:21:16.005Z,1.73
2022-09-15T02:23:51.078Z,1.83
2022-09-15T02:26:24.444Z,3.20
2022-09-15T02:28:54.667Z,2.87
2022-09-15T02:31:25.067Z,2.87
2022-09-15T02:34:03.614Z,3.13
2022-09-15T02:36:31.152Z,2.07
2022-09-15T02:39:03.933Z,3.20
2022-09-15T02:41:30.816Z,3.00
2022-09-15T02:43:57.564Z,2.43
2022-09-15T02:46:24.533Z,2.57
2022-09-15T02:48:51.377Z,3.43
2022-09-15T02:51:18.747Z,4.57
2022-09-15T02:53:46.270Z,1.87
2022-09-15T02:56:13.323Z,2.53
2022-09-15T02:58:40.077Z,3.10
2022-09-15T03:01:07.912Z,1.60
2022-09-15T03:03:35.287Z,2.33
2022-09-15T03:06:17.873Z,2.50
2022-09-15T03:08:50.670Z,3.33
2022-09-15T03:11:23.687Z,2.03
2022-09-15T03:13:58.408Z,1.80
2022-09-15T03:16:27.017Z,3.87
2022-09-15T03:18:59.255Z,3.10
2022-09-15T03:21:29.371Z,2.93
2022-09-15T03:23:57.879Z,3.00
2022-09-15T03:26:25.339Z,2.77
2022-09-15T03:28:52.401Z,2.80
2022-09-15T03:31:19.799Z,1.93
2022-09-15T03:33:47.989Z,3.90
2022-09-15T03:36:14.789Z,2.17
2022-09-15T03:38:41.568Z,2.47
2022-09-15T03:41:12.146Z,2.93
2022-09-15T03:43:39.820Z,3.93
2022-09-15T03:46:09.957Z,2.20
2022-09-15T03:48:37.143Z,3.30
2022-09-15T03:51:05.649Z,2.90
2022-09-15T03:53:34.300Z,2.77
2022-09-15T03:56:32.924Z,3.73
2022-09-15T03:59:06.322Z,2.40
2022-09-15T04:01:33.415Z,4.17
2022-09-15T04:04:00.326Z,3.87
2022-09-15T04:06:27.771Z,2.00
2022-09-15T04:08:54.840Z,3.03
2022-09-15T04:11:22.857Z,2.20
2022-09-15T04:13:50.065Z,2.07
2022-09-15T04:16:23.138Z,3.37
2022-09-15T04:18:51.251Z,3.43
2022-09-15T04:21:22.784Z,3.23
2022-09-15T04:23:50.594Z,3.60
2022-09-15T04:26:31.623Z,3.60
2022-09-15T04:29:03.975Z,1.63
2022-09-15T04:31:33.253Z,2.73
2022-09-15T04:34:00.222Z,2.93
2022-09-15T04:36:28.646Z,1.87
2022-09-15T04:38:56.350Z,1.77
2022-09-15T04:41:24.267Z,6.27
2022-09-15T04:43:51.418Z,2.00
2022-09-15T04:46:18.993Z,2.53
2022-09-15T04:48:46.560Z,1.77
2022-09-15T04:51:18.764Z,4.53
2022-09-15T04:53:46.028Z,3.60
2022-09-15T04:56:20.561Z,3.80
2022-09-15T04:58:55.168Z,2.73
2022-09-15T05:01:27.580Z,2.17
2022-09-15T05:03:55.244Z,1.97
2022-09-15T05:06:26.747Z,1.83
2022-09-15T05:08:56.611Z,1.43
2022-09-15T05:11:24.847Z,5.77
2022-09-15T05:13:52.124Z,1.50
2022-09-15T05:16:22.604Z,3.60
2022-09-15T05:18:51.004Z,2.07
2022-09-15T05:21:20.476Z,2.73
2022-09-15T05:23:48.387Z,2.17
2022-09-15T05:26:19.670Z,2.07
2022-09-15T05:28:46.582Z,3.47
2022-09-15T05:31:26.555Z,1.63
2022-09-15T05:33:54.243Z,2.13
2022-09-15T05:36:25.123Z,1.60
2022-09-15T05:38:54.095Z,3.23
2022-09-15T05:41:21.479Z,2.30
2022-09-15T05:43:50.588Z,1.13
2022-09-15T05:46:19.155Z,1.17
2022-09-15T05:48:47.429Z,2.50
2022-09-15T05:51:15.183Z,1.10
2022-09-15T05:53:42.313Z,1.07
2022-09-15T05:56:12.895Z,1.77
2022-09-15T05:58:45.170Z,1.70
2022-09-15T06:01:25.319Z,0.80
2022-09-15T06:03:53.000Z,1.33
2022-09-15T06:06:24.373Z,2.60
2022-09-15T06:08:58.882Z,0.80
2022-09-15T06:11:30.149Z,1.30
2022-09-15T06:14:00.481Z,1.57
2022-09-15T06:16:27.394Z,2.47
2022-09-15T06:18:54.490Z,2.07
2022-09-15T06:21:27.663Z,1.50
2022-09-15T06:23:57.632Z,1.50
2022-09-15T06:26:25.799Z,1.87
2022-09-15T06:28:56.631Z,2.03
2022-09-15T06:31:25.349Z,1.40
2022-09-15T06:33:55.778Z,0.70
2022-09-15T06:36:26.356Z,1.30
2022-09-15T06:38:53.860Z,1.07
2022-09-15T06:41:21.250Z,1.67
2022-09-15T06:43:49.208Z,2.67
2022-09-15T06:46:20.630Z,0.80
2022-09-15T06:48:48.620Z,1.00
2022-09-15T06:51:19.368Z,1.30
2022-09-15T06:53:46.986Z,0.97
2022-09-15T06:56:20.247Z,1.73
2022-09-15T06:58:51.341Z,2.20
2022-09-15T07:01:31.315Z,1.10
2022-09-15T07:04:00.810Z,1.17
2022-09-15T07:06:33.584Z,2.10
2022-09-15T07:09:02.376Z,2.33
2022-09-15T07:11:29.891Z,2.70
2022-09-15T07:13:56.952Z,2.30
2022-09-15T07:16:25.488Z,3.03
2022-09-15T07:19:01.728Z,1.33
2022-09-15T07:21:28.532Z,2.10
2022-09-15T07:23:57.855Z,0.87
2022-09-15T07:26:27.779Z,1.50
2022-09-15T07:29:06.295Z,1.33
2022-09-15T07:31:35.354Z,1.47
2022-09-15T07:34:03.375Z,2.57
2022-09-15T07:36:31.247Z,1.30
2022-09-15T07:38:58.511Z,1.30
2022-09-15T07:41:28.868Z,1.70
2022-09-15T07:43:59.259Z,2.43
2022-09-15T07:46:29.735Z,1.47
2022-09-15T07:48:56.596Z,1.53
2022-09-15T07:51:24.664Z,1.13
2022-09-15T07:53:52.966Z,1.97
2022-09-15T07:56:20.556Z,1.20
2022-09-15T07:58:48.514Z,1.20
2022-09-15T08:01:17.125Z,2.43
2022-09-15T08:03:50.213Z,1.10
2022-09-15T08:06:20.751Z,1.93
2022-09-15T08:08:47.886Z,1.70
2022-09-15T08:11:19.180Z,4.40
2022-09-15T08:13:50.882Z,1.87
2022-09-15T08:16:22.010Z,0.90
2022-09-15T08:18:50.121Z,0.93
2022-09-15T08:21:22.429Z,6.50
2022-09-15T08:23:58.974Z,2.13
2022-09-15T08:26:28.038Z,1.50
2022-09-15T08:28:55.179Z,2.23
2022-09-15T08:31:24.146Z,1.57
2022-09-15T08:33:53.201Z,1.47
2022-09-15T08:36:20.382Z,0.80
2022-09-15T08:38:47.996Z,2.07
2022-09-15T08:41:32.967Z,1.03
2022-09-15T08:44:27.603Z,0.93
2022-09-15T08:47:02.647Z,0.80
2022-09-15T08:49:52.535Z,2.50
2022-09-15T08:52:30.285Z,1.80
2022-09-15T08:55:03.362Z,1.00
2022-09-15T08:57:30.230Z,1.10
2022-09-15T08:59:59.754Z,2.03
2022-09-15T09:03:00.111Z,1.37
2022-09-15T09:06:03.358Z,0.77
2022-09-15T09:08:48.237Z,1.50
2022-09-15T09:11:51.966Z,1.77
2022-09-15T09:14:30.553Z,1.40
2022-09-15T09:17:31.560Z,3.40
2022-09-15T09:20:51.658Z,1.67
2022-09-15T09:23:25.167Z,1.10
2022-09-15T09:25:52.763Z,1.53
2022-09-15T09:28:40.910Z,1.43
2022-09-15T09:31:18.265Z,2.47
2022-09-15T09:33:56.540Z,1.20
2022-09-15T09:36:23.551Z,3.50
2022-09-15T09:38:50.894Z,1.07
2022-09-15T09:41:25.459Z,2.00
2022-09-15T09:43:55.153Z,3.23
2022-09-15T09:46:22.095Z,1.80
2022-09-15T09:49:16.768Z,1.70
2022-09-15T09:52:03.359Z,1.47
2022-09-15T09:54:32.982Z,1.10
2022-09-15T09:57:41.211Z,2.53
2022-09-15T10:00:33.534Z,1.00
2022-09-15T10:03:14.438Z,0.80
2022-09-15T10:05:42.067Z,2.20
2022-09-15T10:08:17.772Z,0.90
2022-09-15T10:10:53.210Z,1.83
2022-09-15T10:13:21.454Z,1.30
2022-09-15T10:15:59.671Z,0.97
2022-09-15T10:18:38.758Z,1.63
2022-09-15T10:21:08.595Z,4.67
2022-09-15T10:23:36.371Z,2.03
2022-09-15T10:26:23.115Z,1.43
2022-09-15T10:29:12.801Z,0.80
2022-09-15T10:31:40.575Z,1.13
2022-09-15T10:34:30.235Z,1.40
2022-09-15T10:37:43.875Z,3.43
2022-09-15T10:40:51.847Z,2.30
2022-09-15T10:43:37.369Z,1.00
2022-09-15T10:46:27.596Z,0.87
2022-09-15T10:49:34.294Z,0.80
2022-09-15T10:52:41.132Z,0.83
2022-09-15T10:55:52.950Z,1.97
2022-09-15T10:58:56.912Z,2.00
2022-09-15T11:01:39.596Z,1.50
2022-09-15T11:04:50.226Z,2.37
2022-09-15T11:07:31.924Z,1.13
2022-09-15T11:10:31.827Z,0.97
2022-09-15T11:13:40.248Z,1.30
2022-09-15T11:16:38.762Z,2.10
2022-09-15T11:19:41.286Z,1.40
2022-09-15T11:22:15.603Z,3.20
2022-09-15T11:25:03.830Z,0.60
2022-09-15T11:27:41.058Z,1.03
2022-09-15T11:30:24.107Z,0.73
2022-09-15T11:33:21.331Z,2.40
2022-09-15T11:36:07.655Z,2.33
2022-09-15T11:39:12.475Z,2.70
2022-09-15T11:41:56.968Z,6.30
2022-09-15T11:44:42.922Z,7.57
2022-09-15T11:47:31.641Z,3.97
2022-09-15T11:50:18.010Z,6.83
2022-09-15T11:53:18.091Z,5.57
2022-09-15T11:56:01.681Z,6.60
2022-09-15T11:58:54.183Z,2.17
2022-09-15T12:01:31.652Z,1.30
2022-09-15T12:04:12.045Z,1.30
2022-09-15T12:06:58.055Z,1.47
2022-09-15T12:09:24.859Z,1.83
2022-09-15T12:12:05.784Z,1.73
2022-09-15T12:14:39.038Z,1.87
2022-09-15T12:17:09.701Z,3.13
2022-09-15T12:19:46.636Z,1.23
2022-09-15T12:22:27.216Z,2.33
2022-09-15T12:25:06.426Z,1.13
2022-09-15T12:27:33.207Z,5.17
2022-09-15T12:30:00.751Z,2.57
2022-09-15T12:32:33.160Z,0.93
2022-09-15T12:35:20.096Z,1.20
2022-09-15T12:37:53.352Z,0.90
2022-09-15T12:40:41.646Z,1.53
2022-09-15T12:43:11.673Z,0.67
2022-09-15T12:45:41.033Z,1.33
2022-09-15T12:48:18.849Z,1.50
2022-09-15T12:50:55.814Z,2.00
2022-09-15T12:53:27.759Z,0.73
2022-09-15T12:56:02.301Z,1.20
2022-09-15T12:58:42.204Z,1.47
2022-09-15T13:01:32.392Z,1.67
2022-09-15T13:03:59.087Z,2.03
2022-09-15T13:06:34.023Z,2.47
2022-09-15T13:09:05.226Z,2.30
2022-09-15T13:11:37.313Z,2.63
2022-09-15T13:14:04.374Z,3.37
2022-09-15T13:16:40.520Z,1.83
2022-09-15T13:19:44.064Z,1.90
2022-09-15T13:22:29.973Z,2.43
2022-09-15T13:25:15.565Z,2.33
2022-09-15T13:27:58.036Z,2.63
2022-09-15T13:30:36.686Z,2.63
2022-09-15T13:40:56.747Z,1.90
2022-09-15T13:43:38.602Z,3.47
2022-09-15T13:46:41.335Z,1.30
2022-09-15T13:49:47.623Z,2.97
2022-09-15T13:52:23.257Z,2.30
2022-09-15T13:55:14.570Z,2.80
2022-09-15T14:00:55.071Z,1.70
2022-09-15T14:03:48.186Z,1.40
2022-09-15T14:06:26.395Z,2.67
2022-09-15T14:08:58.962Z,2.00
2022-09-15T14:11:32.709Z,2.07
2022-09-15T14:14:00.867Z,1.73
2022-09-15T14:16:27.875Z,2.77
2022-09-15T14:18:57.663Z,3.30
2022-09-15T14:21:33.227Z,2.93
2022-09-15T14:24:06.131Z,2.40
2022-09-15T14:26:35.775Z,3.87
2022-09-15T14:29:07.148Z,4.63
2022-09-15T14:31:42.619Z,2.50
2022-09-15T14:34:27.146Z,2.63
2022-09-15T14:37:21.598Z,1.80
2022-09-15T14:39:57.219Z,1.13
2022-09-15T14:42:35.807Z,3.10
2022-09-15T14:48:02.614Z,1.40
2022-09-15T14:50:33.121Z,2.43
2022-09-15T14:53:16.223Z,1.57
2022-09-15T14:55:53.443Z,1.93
2022-09-15T14:58:37.270Z,2.97
2022-09-15T15:01:19.025Z,3.23
2022-09-15T15:04:20.042Z,2.80
2022-09-15T15:07:01.818Z,1.23
2022-09-15T15:09:44.611Z,1.33
2022-09-15T15:12:34.304Z,0.77
2022-09-15T15:15:01.870Z,0.80
2022-09-15T15:17:39.338Z,0.83
2022-09-15T15:20:06.032Z,2.10
2022-09-15T15:22:32.780Z,2.47
2022-09-15T15:25:00.557Z,0.93
2022-09-15T15:27:33.155Z,0.90
2022-09-15T15:30:36.705Z,1.53
2022-09-15T15:33:14.108Z,1.47
2022-09-15T15:35:42.962Z,0.80
2022-09-15T15:38:17.616Z,0.93
2022-09-15T15:40:45.637Z,1.17
2022-09-15T15:43:24.444Z,0.90
2022-09-15T15:46:01.143Z,0.87
2022-09-15T15:48:37.902Z,2.30
2022-09-15T15:51:06.681Z,1.47
2022-09-15T15:53:34.216Z,2.27
2022-09-15T15:56:01.082Z,1.80
2022-09-15T15:58:28.016Z,2.20
2022-09-15T16:00:57.024Z,3.53
2022-09-15T16:03:25.142Z,1.27
2022-09-15T16:05:57.553Z,1.13
2022-09-15T16:08:33.900Z,1.20
2022-09-15T16:11:02.522Z,1.80
2022-09-15T16:13:30.149Z,1.93
2022-09-15T16:16:00.814Z,1.57
2022-09-15T16:18:28.807Z,1.77
2022-09-15T16:20:55.563Z,1.40
2022-09-15T16:23:23.285Z,2.03
2022-09-15T16:26:07.329Z,2.00
2022-09-15T16:28:34.170Z,2.13
2022-09-15T16:31:00.980Z,3.63
2022-09-15T16:33:27.779Z,2.90
2022-09-15T16:36:06.714Z,3.17
2022-09-15T16:38:35.750Z,3.83
2022-09-15T16:41:05.867Z,3.33
2022-09-15T16:43:32.610Z,2.13
2022-09-15T16:45:59.371Z,2.27
2022-09-15T16:48:27.147Z,3.93
2022-09-15T16:51:17.209Z,2.70
2022-09-15T16:53:40.998Z,4.63
2022-09-15T16:56:11.499Z,3.70
2022-09-15T16:58:38.837Z,4.47
2022-09-15T17:01:07.117Z,3.73
2022-09-15T17:03:34.272Z,4.40
2022-09-15T17:06:01.820Z,2.77
2022-09-15T17:08:31.805Z,4.40
2022-09-15T17:11:04.002Z,2.40
2022-09-15T17:13:33.948Z,3.37
2022-09-15T17:16:02.061Z,4.03
2022-09-15T17:18:29.393Z,2.47
2022-09-15T17:20:56.751Z,3.20
2022-09-15T17:23:35.342Z,4.63
2022-09-15T17:26:06.456Z,5.10
2022-09-15T17:28:35.002Z,3.97
2022-09-15T17:31:22.637Z,3.73
2022-09-15T17:33:50.629Z,3.70
2022-09-15T17:36:18.267Z,5.10
2022-09-15T17:38:45.444Z,4.60
2022-09-15T17:41:18.894Z,4.30
2022-09-15T17:43:46.112Z,4.50
2022-09-15T17:46:13.488Z,4.47
2022-09-15T17:48:40.374Z,4.73
2022-09-15T17:51:08.126Z,3.80
2022-09-15T17:53:34.879Z,3.73
2022-09-15T17:56:01.883Z,4.93
2022-09-15T17:58:31.216Z,5.87
2022-09-15T18:00:59.159Z,4.60
2022-09-15T18:03:29.923Z,4.80
2022-09-15T18:05:59.166Z,3.90
2022-09-15T18:08:27.169Z,6.47
2022-09-15T18:10:54.434Z,4.63
2022-09-15T18:13:26.815Z,6.13
2022-09-15T18:15:54.415Z,5.83
2022-09-15T18:18:25.336Z,6.93
2022-09-15T18:20:54.254Z,6.73
2022-09-15T18:23:24.120Z,5.07
2022-09-15T18:25:51.218Z,5.30
2022-09-15T18:28:19.243Z,5.40
2022-09-15T18:30:49.127Z,4.17
2022-09-15T18:33:20.152Z,4.20
2022-09-15T18:35:50.355Z,5.43
2022-09-15T18:38:18.784Z,4.60
2022-09-15T18:40:48.898Z,5.70
2022-09-15T18:43:17.526Z,5.83
2022-09-15T18:45:44.720Z,7.10
2022-09-15T18:48:13.198Z,5.37
2022-09-15T18:50:41.662Z,5.93
2022-09-15T18:53:09.090Z,5.80
2022-09-15T18:55:35.999Z,5.07
2022-09-15T18:58:02.914Z,4.53
2022-09-15T19:00:31.388Z,5.63
2022-09-15T19:03:00.450Z,4.20
2022-09-15T19:05:29.671Z,5.03
2022-09-15T19:07:56.926Z,5.17
2022-09-15T19:10:25.287Z,5.67
2022-09-15T19:12:52.390Z,7.90
2022-09-15T19:15:23.600Z,5.63
2022-09-15T19:17:50.623Z,4.77
2022-09-15T19:20:17.854Z,4.93
2022-09-15T19:22:44.704Z,4.83
2022-09-15T19:25:12.477Z,4.50
2022-09-15T19:27:39.831Z,5.37
2022-09-15T19:30:09.845Z,5.47
2022-09-15T19:32:37.679Z,6.97
2022-09-15T19:35:05.106Z,4.77
2022-09-15T19:37:34.828Z,7.63
2022-09-15T19:40:02.880Z,5.17
2022-09-15T19:42:30.082Z,7.10
2022-09-15T19:44:56.835Z,4.93
2022-09-15T19:47:23.620Z,5.43
2022-09-15T19:49:51.998Z,6.60
2022-09-15T19:52:18.771Z,7.27
2022-09-15T19:54:45.558Z,6.67
2022-09-15T19:57:12.307Z,7.27
2022-09-15T19:59:39.276Z,5.80
2022-09-15T20:02:06.512Z,5.80
2022-09-15T20:04:33.433Z,5.60
2022-09-15T20:07:00.184Z,5.77
2022-09-15T20:09:26.955Z,7.53
2022-09-15T20:11:53.758Z,6.50
2022-09-15T20:14:20.502Z,6.40
2022-09-15T20:16:47.483Z,6.63
2022-09-15T20:19:14.347Z,9.37
2022-09-15T20:21:56.594Z,6.47
2022-09-15T20:24:24.281Z,6.60
2022-09-15T20:26:51.686Z,6.40
2022-09-15T20:29:19.433Z,6.57
2022-09-15T20:31:47.030Z,7.63
2022-09-15T20:34:13.975Z,6.13
2022-09-15T20:36:40.935Z,7.03
2022-09-15T20:39:14.490Z,6.53
2022-09-15T20:41:44.979Z,6.70
2022-09-15T20:44:12.260Z,6.33
2022-09-15T20:46:39.787Z,7.67
2022-09-15T20:49:07.602Z,8.53
2022-09-15T20:51:34.793Z,5.80
2022-09-15T20:54:06.144Z,6.20
2022-09-15T20:56:35.054Z,5.97
2022-09-15T20:59:03.734Z,6.17
2022-09-15T21:01:36.988Z,6.63
2022-09-15T21:04:08.746Z,6.33
2022-09-15T21:06:35.889Z,6.47
2022-09-15T21:09:04.478Z,7.13
2022-09-15T21:11:31.367Z,5.50
2022-09-15T21:13:58.748Z,8.77
2022-09-15T21:16:28.707Z,9.10
2022-09-15T21:18:57.844Z,7.97
2022-09-15T21:21:29.703Z,8.53
2022-09-15T21:24:01.059Z,6.43
2022-09-15T21:26:34.635Z,6.80
2022-09-15T21:29:02.229Z,6.77
2022-09-15T21:31:33.195Z,6.97
2022-09-15T21:34:00.222Z,7.40
2022-09-15T21:36:29.861Z,6.87
2022-09-15T21:38:58.687Z,8.07
2022-09-15T21:41:29.820Z,8.57
2022-09-15T21:43:58.225Z,8.10
2022-09-15T21:46:30.911Z,8.93
2022-09-15T21:48:59.754Z,12.97
2022-09-15T21:51:29.160Z,8.43
2022-09-15T21:53:58.723Z,8.47
2022-09-15T21:56:27.867Z,8.43
2022-09-15T21:58:54.871Z,11.97
2022-09-15T22:01:24.196Z,8.83
2022-09-15T22:03:54.562Z,8.47
2022-09-15T22:06:33.248Z,8.00
2022-09-15T22:09:05.441Z,7.47
2022-09-15T22:11:32.602Z,6.27
2022-09-15T22:14:01.734Z,9.13
2022-09-15T22:16:29.148Z,5.83
2022-09-15T22:18:56.364Z,7.20
2022-09-15T22:21:26.807Z,7.27
2022-09-15T22:23:58.948Z,10.13
2022-09-15T22:26:29.005Z,9.40
2022-09-15T22:28:56.475Z,7.90
2022-09-15T22:31:24.556Z,7.70
2022-09-15T22:33:52.630Z,10.53
2022-09-15T22:36:29.210Z,10.23
2022-09-15T22:39:05.003Z,7.77
2022-09-15T22:41:38.316Z,8.93
2022-09-15T22:44:07.180Z,9.73
2022-09-15T22:46:34.318Z,11.47
2022-09-15T22:49:01.660Z,10.03
2022-09-15T22:51:28.572Z,9.03
2022-09-15T22:53:56.906Z,9.03
2022-09-15T22:56:25.827Z,10.37
2022-09-15T22:58:52.792Z,9.80
2022-09-15T23:01:23.701Z,10.70
2022-09-15T23:03:59.884Z,11.90
2022-09-15T23:06:30.775Z,10.20
2022-09-15T23:09:01.494Z,12.07
2022-09-15T23:11:31.359Z,10.40
2022-09-15T23:13:58.120Z,11.90
2022-09-15T23:16:25.977Z,12.77
2022-09-15T23:18:54.025Z,10.40
2022-09-15T23:21:21.522Z,12.17
2022-09-15T23:23:49.278Z,12.20
2022-09-15T23:26:21.965Z,11.80
2022-09-15T23:28:51.821Z,13.57
2022-09-15T23:31:19.114Z,12.90
2022-09-15T23:33:46.851Z,11.07
2022-09-15T23:36:16.546Z,11.70
2022-09-15T23:38:44.830Z,10.37
2022-09-15T23:41:13.011Z,9.47
2022-09-15T23:43:40.093Z,8.77
2022-09-15T23:46:07.276Z,11.07
2022-09-15T23:48:34.239Z,11.40
2022-09-15T23:51:01.593Z,13.67
2022-09-15T23:53:29.348Z,12.57
2022-09-15T23:55:56.799Z,10.03
2022-09-15T23:58:23.779Z,8.13
